createdAt,value
2022-11-17T00:00:43.515Z,99779.84
2022-11-17T00:03:16.038Z,99771.31
2022-11-17T00:05:45.299Z,99765.34
2022-11-17T00:08:13.102Z,99766.22
2022-11-17T00:10:40.725Z,99776.44
2022-11-17T00:13:29.495Z,99775.53
2022-11-17T00:15:57.292Z,99777.25
2022-11-17T00:18:43.267Z,99776.41
2022-11-17T00:21:24.090Z,99773.84
2022-11-17T00:23:51.561Z,99774.69
2022-11-17T00:26:30.468Z,99778.13
2022-11-17T00:29:00.753Z,99772.09
2022-11-17T00:31:47.484Z,99780.63
2022-11-17T00:34:18.142Z,99775.53
2022-11-17T00:36:50.701Z,99765.31
2022-11-17T00:39:19.979Z,99766.97
2022-11-17T00:41:47.888Z,99766.13
2022-11-17T00:44:15.847Z,99752.41
2022-11-17T00:46:43.930Z,99765.25
2022-11-17T00:49:12.468Z,99766.09
2022-11-17T00:51:40.052Z,99769.50
2022-11-17T00:54:10.622Z,99768.59
2022-11-17T00:56:38.547Z,99767.75
2022-11-17T00:59:06.319Z,99749.81
2022-11-17T01:01:34.005Z,99765.16
2022-11-17T01:04:04.834Z,99771.09
2022-11-17T01:06:35.202Z,99765.13
2022-11-17T01:09:12.029Z,99774.53
2022-11-17T01:11:40.282Z,99777.06
2022-11-17T01:14:08.616Z,99771.03
2022-11-17T01:16:36.301Z,99765.09
2022-11-17T01:19:05.063Z,99755.72
2022-11-17T01:21:33.072Z,99758.25
2022-11-17T01:24:02.116Z,99755.63
2022-11-17T01:26:35.448Z,99756.47
2022-11-17T01:29:05.106Z,99756.44
2022-11-17T01:31:35.705Z,99744.44
2022-11-17T01:34:03.474Z,99751.28
2022-11-17T01:36:57.244Z,99720.41
2022-11-17T01:39:26.010Z,99751.28
2022-11-17T01:41:54.578Z,99761.50
2022-11-17T01:44:44.895Z,99756.38
2022-11-17T01:47:16.678Z,99758.03
2022-11-17T01:49:45.305Z,99726.31
2022-11-17T01:52:14.245Z,99754.63
2022-11-17T01:54:43.589Z,99746.06
2022-11-17T01:57:18.978Z,99758.09
2022-11-17T01:59:58.770Z,99758.06
2022-11-17T02:02:26.631Z,99751.28
2022-11-17T02:05:12.086Z,99749.63
2022-11-17T02:07:42.748Z,99743.56
2022-11-17T02:10:10.285Z,99749.53
2022-11-17T02:12:38.763Z,99730.81
2022-11-17T02:15:07.658Z,99744.44
2022-11-17T02:17:38.696Z,99751.25
2022-11-17T02:20:12.021Z,99735.78
2022-11-17T02:22:51.560Z,99730.72
2022-11-17T02:25:40.849Z,99732.41
2022-11-17T02:28:30.382Z,99739.19
2022-11-17T02:31:03.671Z,99744.22
2022-11-17T02:33:55.930Z,99751.03
2022-11-17T02:36:42.012Z,99736.53
2022-11-17T02:39:21.047Z,99727.16
2022-11-17T02:42:10.408Z,99721.13
2022-11-17T02:44:52.548Z,99727.03
2022-11-17T02:47:25.751Z,99719.31
2022-11-17T02:50:01.789Z,99726.13
2022-11-17T02:52:30.671Z,99729.50
2022-11-17T02:55:03.095Z,99728.56
2022-11-17T02:57:34.942Z,99739.72
2022-11-17T03:00:12.691Z,99741.41
2022-11-17T03:02:47.963Z,99738.84
2022-11-17T03:05:26.612Z,99726.91
2022-11-17T03:08:32.620Z,99732.09
2022-11-17T03:11:06.943Z,99721.75
2022-11-17T03:14:05.056Z,99723.53
2022-11-17T03:16:41.889Z,99728.66
2022-11-17T03:19:36.227Z,99740.56
2022-11-17T03:22:20.381Z,99730.34
2022-11-17T03:25:00.054Z,99729.50
2022-11-17T03:27:33.308Z,99718.44
2022-11-17T03:30:05.406Z,99724.38
2022-11-17T03:32:39.759Z,99726.06
2022-11-17T03:35:21.958Z,99719.28
2022-11-17T03:37:55.410Z,99733.69
2022-11-17T03:40:32.077Z,99741.34
2022-11-17T03:43:05.359Z,99735.34
2022-11-17T03:45:36.151Z,99740.41
2022-11-17T03:48:29.547Z,99741.25
2022-11-17T03:51:23.780Z,99736.06
2022-11-17T03:53:52.648Z,99743.69
2022-11-17T03:56:44.694Z,99737.72
2022-11-17T03:59:20.657Z,99741.16
2022-11-17T04:01:47.943Z,99743.69
2022-11-17T04:04:20.494Z,99741.09
2022-11-17T04:06:50.118Z,99740.25
2022-11-17T04:09:22.913Z,99723.16
2022-11-17T04:12:10.204Z,99743.66
2022-11-17T04:14:56.016Z,99742.78
2022-11-17T04:17:23.533Z,99747.09
2022-11-17T04:19:51.008Z,99748.78
2022-11-17T04:22:18.336Z,99736.91
2022-11-17T04:24:45.657Z,99738.53
2022-11-17T04:27:31.589Z,99735.91
2022-11-17T04:29:58.908Z,99752.16
2022-11-17T04:32:26.389Z,99745.25
2022-11-17T04:34:53.618Z,99741.81
2022-11-17T04:37:20.961Z,99745.22
2022-11-17T04:39:48.434Z,99752.03
2022-11-17T04:42:15.672Z,99751.19
2022-11-17T04:44:43.162Z,99749.56
2022-11-17T04:47:10.456Z,99751.31
2022-11-17T04:49:37.800Z,99735.13
2022-11-17T04:52:05.336Z,99735.09
2022-11-17T04:54:32.610Z,99732.53
2022-11-17T04:56:59.838Z,99738.50
2022-11-17T04:59:27.244Z,99739.44
2022-11-17T05:01:54.757Z,99732.66
2022-11-17T05:04:40.589Z,99730.09
2022-11-17T05:07:09.121Z,99731.84
2022-11-17T05:09:36.648Z,99719.81
2022-11-17T05:12:22.911Z,99726.59
2022-11-17T05:14:50.675Z,99740.25
2022-11-17T05:17:18.216Z,99740.25
2022-11-17T05:19:47.437Z,99737.69
2022-11-17T05:22:37.200Z,99741.94
2022-11-17T05:25:06.123Z,99741.91
2022-11-17T05:27:34.700Z,99742.72
2022-11-17T05:30:03.393Z,99740.06
2022-11-17T05:32:30.729Z,99736.69
2022-11-17T05:34:58.180Z,99740.06
2022-11-17T05:37:25.566Z,99736.53
2022-11-17T05:39:52.906Z,99734.88
2022-11-17T05:42:20.271Z,99726.28
2022-11-17T05:44:48.808Z,99722.81
2022-11-17T05:47:16.441Z,99733.81
2022-11-17T05:49:43.809Z,99739.88
2022-11-17T05:52:11.209Z,99728.75
2022-11-17T05:54:38.578Z,99732.19
2022-11-17T05:57:14.851Z,99723.63
2022-11-17T05:59:47.387Z,99727.91
2022-11-17T06:02:39.786Z,99706.41
2022-11-17T06:05:08.704Z,99734.66
2022-11-17T06:07:37.597Z,99736.38
2022-11-17T06:10:05.667Z,99731.22
2022-11-17T06:12:33.085Z,99725.31
2022-11-17T06:15:00.384Z,99746.66
2022-11-17T06:17:33.032Z,99741.56
2022-11-17T06:20:06.442Z,99746.75
2022-11-17T06:22:34.862Z,99741.66
2022-11-17T06:25:04.841Z,99740.75
2022-11-17T06:27:33.557Z,99752.75
2022-11-17T06:30:03.955Z,99752.69
2022-11-17T06:32:33.386Z,99750.97
2022-11-17T06:35:01.821Z,99754.38
2022-11-17T06:37:29.184Z,99748.44
2022-11-17T06:39:56.583Z,99745.00
2022-11-17T06:42:44.484Z,99751.00
2022-11-17T06:45:12.559Z,99758.63
2022-11-17T06:47:40.203Z,99746.75
2022-11-17T06:50:07.893Z,99753.56
2022-11-17T06:52:35.338Z,99744.16
2022-11-17T06:55:02.733Z,99744.97
2022-11-17T06:57:30.589Z,99744.91
2022-11-17T06:59:58.073Z,99743.31
2022-11-17T07:02:25.406Z,99748.38
2022-11-17T07:04:52.770Z,99761.22
2022-11-17T07:07:20.193Z,99756.03
2022-11-17T07:09:47.715Z,99769.66
2022-11-17T07:12:16.327Z,99765.38
2022-11-17T07:14:43.732Z,99772.25
2022-11-17T07:17:11.107Z,99767.22
2022-11-17T07:19:38.511Z,99776.59
2022-11-17T07:22:05.898Z,99775.81
2022-11-17T07:24:33.235Z,99774.13
2022-11-17T07:27:00.812Z,99772.31
2022-11-17T07:29:29.302Z,99774.00
2022-11-17T07:31:56.698Z,99761.22
2022-11-17T07:34:24.083Z,99727.59
2022-11-17T07:36:51.363Z,99765.41
2022-11-17T07:39:21.711Z,99773.16
2022-11-17T07:41:49.705Z,99763.75
2022-11-17T07:44:17.178Z,99765.34
2022-11-17T07:46:44.674Z,99766.22
2022-11-17T07:49:12.219Z,99762.88
2022-11-17T07:51:39.621Z,99758.66
2022-11-17T07:54:07.044Z,99753.59
2022-11-17T07:56:34.920Z,99750.06
2022-11-17T07:59:02.157Z,99757.75
2022-11-17T08:01:29.985Z,99748.41
2022-11-17T08:03:58.076Z,99751.03
2022-11-17T08:06:25.575Z,99748.38
2022-11-17T08:08:53.837Z,99755.22
2022-11-17T08:11:21.109Z,99758.66
2022-11-17T08:13:50.331Z,99756.19
2022-11-17T08:16:17.962Z,99739.88
2022-11-17T08:18:51.808Z,99740.75
2022-11-17T08:21:20.130Z,99747.56
2022-11-17T08:23:52.561Z,99750.19
2022-11-17T08:26:25.294Z,99717.53
2022-11-17T08:28:58.140Z,99744.25
2022-11-17T08:31:26.197Z,99741.72
2022-11-17T08:33:53.588Z,99749.38
2022-11-17T08:36:20.863Z,99751.09
2022-11-17T08:38:48.277Z,99735.66
2022-11-17T08:41:15.626Z,99751.94
2022-11-17T08:43:42.967Z,99744.25
2022-11-17T08:46:14.462Z,99743.34
2022-11-17T08:48:41.742Z,99748.50
2022-11-17T08:51:09.621Z,99743.44
2022-11-17T08:53:36.963Z,99740.03
2022-11-17T08:56:22.511Z,99752.09
2022-11-17T08:58:49.965Z,99758.97
2022-11-17T09:01:17.796Z,99759.00
2022-11-17T09:03:47.858Z,99750.44
2022-11-17T09:06:16.604Z,99747.94
2022-11-17T09:08:46.227Z,99752.16
2022-11-17T09:11:14.844Z,99744.44
2022-11-17T09:13:42.583Z,99753.81
2022-11-17T09:16:12.251Z,99755.56
2022-11-17T09:18:41.265Z,99752.22
2022-11-17T09:21:12.877Z,99747.16
2022-11-17T09:23:40.466Z,99738.75
2022-11-17T09:26:11.017Z,99731.97
2022-11-17T09:28:38.816Z,99728.56
2022-11-17T09:31:12.478Z,99716.41
2022-11-17T09:33:39.906Z,99741.22
2022-11-17T09:36:08.209Z,99747.16
2022-11-17T09:38:37.487Z,99742.06
2022-11-17T09:41:23.167Z,99739.56
2022-11-17T09:44:14.052Z,99745.47
2022-11-17T09:47:03.240Z,99740.25
2022-11-17T09:50:06.093Z,99747.09
2022-11-17T09:52:54.901Z,99736.13
2022-11-17T09:55:45.838Z,99739.47
2022-11-17T09:58:20.112Z,99740.38
2022-11-17T10:00:50.706Z,99731.78
2022-11-17T10:03:26.457Z,99731.78
2022-11-17T10:05:54.472Z,99733.53
2022-11-17T10:08:37.034Z,99729.22
2022-11-17T10:11:24.425Z,99723.28
2022-11-17T10:13:51.821Z,99723.31
2022-11-17T10:16:19.261Z,99719.81
2022-11-17T10:18:46.733Z,99677.88
2022-11-17T10:21:14.189Z,99731.00
2022-11-17T10:23:47.362Z,99728.41
2022-11-17T10:26:16.622Z,99726.75
2022-11-17T10:28:44.347Z,99730.16
2022-11-17T10:31:19.500Z,99726.75
2022-11-17T10:33:50.438Z,99721.66
2022-11-17T10:36:27.756Z,99740.44
2022-11-17T10:38:57.169Z,99734.41
2022-11-17T10:41:30.768Z,99729.25
2022-11-17T10:44:15.204Z,99734.38
2022-11-17T10:47:08.294Z,99721.59
2022-11-17T10:49:38.727Z,99725.91
2022-11-17T10:52:11.664Z,99712.31
2022-11-17T10:54:39.332Z,99703.81
2022-11-17T10:57:12.839Z,99716.72
2022-11-17T10:59:49.636Z,99703.03
2022-11-17T11:02:35.715Z,99707.22
2022-11-17T11:05:12.700Z,99702.94
2022-11-17T11:07:41.097Z,99698.63
2022-11-17T11:10:23.973Z,99700.44
2022-11-17T11:13:00.351Z,99698.75
2022-11-17T11:15:34.578Z,99702.13
2022-11-17T11:18:02.744Z,99700.34
2022-11-17T11:21:05.536Z,99691.91
2022-11-17T11:23:38.236Z,99684.16
2022-11-17T11:26:40.889Z,99691.06
2022-11-17T11:29:23.430Z,99699.59
2022-11-17T11:32:10.270Z,99701.19
2022-11-17T11:35:04.244Z,99699.47
2022-11-17T11:37:50.963Z,99686.59
2022-11-17T11:40:42.790Z,99706.28
2022-11-17T11:43:28.716Z,99698.56
2022-11-17T11:46:16.449Z,99695.97
2022-11-17T11:48:43.799Z,99709.53
2022-11-17T11:51:29.081Z,99702.72
2022-11-17T11:54:09.956Z,99695.13
2022-11-17T11:56:44.571Z,99689.19
2022-11-17T11:59:26.551Z,99686.59
2022-11-17T12:02:11.346Z,99689.16
2022-11-17T12:05:01.357Z,99689.13
2022-11-17T12:07:40.781Z,99693.41
2022-11-17T12:10:26.050Z,99694.19
2022-11-17T12:12:53.733Z,99673.72
2022-11-17T12:15:21.066Z,99682.41
2022-11-17T12:18:04.209Z,99689.19
2022-11-17T12:20:31.545Z,99683.25
2022-11-17T12:23:20.193Z,99694.22
2022-11-17T12:25:53.930Z,99685.69
2022-11-17T12:28:40.225Z,99679.81
2022-11-17T12:31:11.735Z,99670.47
2022-11-17T12:33:54.339Z,99683.31
2022-11-17T12:36:30.055Z,99684.97
2022-11-17T12:39:01.423Z,99689.19
2022-11-17T12:41:53.450Z,99684.03
2022-11-17T12:44:48.834Z,99689.09
2022-11-17T12:47:25.169Z,99684.75
2022-11-17T12:50:23.599Z,99682.16
2022-11-17T12:52:51.193Z,99672.75
2022-11-17T12:55:29.213Z,99671.88
2022-11-17T12:58:31.087Z,99675.28
2022-11-17T13:01:17.888Z,99666.72
2022-11-17T13:04:12.543Z,99667.56
2022-11-17T13:06:58.993Z,99680.41
2022-11-17T13:09:28.859Z,99675.34
2022-11-17T13:12:07.082Z,99678.75
2022-11-17T13:14:36.489Z,99682.06
2022-11-17T13:17:04.239Z,99671.75
2022-11-17T13:19:40.506Z,99666.59
2022-11-17T13:22:17.416Z,99668.34
2022-11-17T13:24:49.889Z,99666.69
2022-11-17T13:27:20.695Z,99673.41
2022-11-17T13:29:48.193Z,99664.00
2022-11-17T13:32:19.175Z,99674.97
2022-11-17T13:34:56.643Z,99669.84
2022-11-17T13:37:29.069Z,99675.75
2022-11-17T13:40:17.609Z,99666.34
2022-11-17T13:42:45.263Z,99667.19
2022-11-17T13:45:15.930Z,99667.97
2022-11-17T13:47:50.344Z,99670.59
2022-11-17T13:50:33.041Z,99662.94
2022-11-17T13:53:12.039Z,99662.06
2022-11-17T13:55:49.477Z,99656.16
2022-11-17T13:58:39.503Z,99652.72
2022-11-17T14:01:11.722Z,99657.75
2022-11-17T14:03:42.076Z,99659.53
2022-11-17T14:06:12.285Z,99662.09
2022-11-17T14:08:41.320Z,99657.91
2022-11-17T14:11:11.518Z,99654.50
2022-11-17T14:13:39.884Z,99660.28
2022-11-17T14:16:22.430Z,99659.38
2022-11-17T14:19:16.358Z,99661.13
2022-11-17T14:22:06.327Z,99654.19
2022-11-17T14:24:33.745Z,99651.59
2022-11-17T14:27:01.703Z,99653.28
2022-11-17T14:29:29.794Z,99656.75
2022-11-17T14:31:57.533Z,99654.16
2022-11-17T14:34:25.116Z,99649.81
2022-11-17T14:36:55.320Z,99665.88
2022-11-17T14:39:22.743Z,99662.38
2022-11-17T14:41:51.466Z,99663.97
2022-11-17T14:44:19.010Z,99657.00
2022-11-17T14:46:46.417Z,99663.88
2022-11-17T14:49:14.054Z,99665.56
2022-11-17T14:51:42.039Z,99670.63
2022-11-17T14:54:09.477Z,99672.31
2022-11-17T14:56:36.908Z,99673.13
2022-11-17T14:59:04.361Z,99679.97
2022-11-17T15:01:34.873Z,99675.72
2022-11-17T15:04:27.308Z,99669.78
2022-11-17T15:06:52.336Z,99634.56
2022-11-17T15:09:21.165Z,99667.19
2022-11-17T15:11:50.024Z,99672.28
2022-11-17T15:14:17.930Z,99670.56
2022-11-17T15:16:45.753Z,99677.38
2022-11-17T15:19:13.472Z,99677.31
2022-11-17T15:21:40.916Z,99675.63
2022-11-17T15:24:09.512Z,99673.88
2022-11-17T15:26:36.880Z,99673.94
2022-11-17T15:29:04.408Z,99668.84
2022-11-17T15:31:31.875Z,99667.09
2022-11-17T15:33:59.225Z,99672.13
2022-11-17T15:36:26.640Z,99664.47
2022-11-17T15:38:54.180Z,99658.53
2022-11-17T15:41:21.667Z,99659.41
2022-11-17T15:43:49.369Z,99653.41
2022-11-17T15:46:18.747Z,99646.50
2022-11-17T15:48:49.262Z,99639.72
2022-11-17T15:51:18.994Z,99637.91
2022-11-17T15:53:47.817Z,99612.00
2022-11-17T15:56:16.941Z,99644.69
2022-11-17T15:58:44.784Z,99638.75
2022-11-17T16:01:28.378Z,99638.75
2022-11-17T16:04:01.682Z,99643.09
2022-11-17T16:06:30.309Z,99634.50
2022-11-17T16:08:58.020Z,99642.31
2022-11-17T16:11:27.256Z,99638.00
2022-11-17T16:13:55.600Z,99637.13
2022-11-17T16:16:24.610Z,99631.06
2022-11-17T16:18:52.065Z,99642.91
2022-11-17T16:21:19.775Z,99637.81
2022-11-17T16:23:49.645Z,99617.28
2022-11-17T16:26:19.528Z,99632.66
2022-11-17T16:28:47.392Z,99629.97
2022-11-17T16:31:18.558Z,99638.56
2022-11-17T16:33:52.970Z,99639.41
2022-11-17T16:36:21.963Z,99637.78
2022-11-17T16:39:01.289Z,99639.56
2022-11-17T16:41:32.834Z,99631.13
2022-11-17T16:44:00.648Z,99624.38
2022-11-17T16:46:32.316Z,99631.19
2022-11-17T16:49:07.542Z,99630.31
2022-11-17T16:51:35.196Z,99625.19
2022-11-17T16:54:05.363Z,99627.63
2022-11-17T16:56:34.257Z,99626.81
2022-11-17T16:59:01.836Z,99633.66
2022-11-17T17:01:31.164Z,99631.06
2022-11-17T17:04:00.969Z,99637.13
2022-11-17T17:06:29.246Z,99640.50
2022-11-17T17:08:57.882Z,99632.78
2022-11-17T17:11:26.040Z,99642.16
2022-11-17T17:13:53.536Z,99636.16
2022-11-17T17:16:21.335Z,99620.72
2022-11-17T17:18:49.516Z,99640.38
2022-11-17T17:21:19.691Z,99650.59
2022-11-17T17:23:46.917Z,99650.59
2022-11-17T17:26:18.457Z,99644.66
2022-11-17T17:28:48.033Z,99643.75
2022-11-17T17:31:21.730Z,99646.31
2022-11-17T17:33:51.852Z,99648.00
2022-11-17T17:36:22.153Z,99636.16
2022-11-17T17:38:55.400Z,99642.97
2022-11-17T17:41:27.583Z,99642.97
2022-11-17T17:43:58.179Z,99633.53
2022-11-17T17:46:27.078Z,99640.38
2022-11-17T17:48:55.953Z,99634.47
2022-11-17T17:51:26.205Z,99634.47
2022-11-17T17:53:59.043Z,99617.34
2022-11-17T17:56:26.812Z,99634.47
2022-11-17T17:58:57.657Z,99634.47
2022-11-17T18:01:30.184Z,99634.50
2022-11-17T18:04:05.318Z,99618.25
2022-11-17T18:06:42.075Z,99627.69
2022-11-17T18:09:11.494Z,99632.78
2022-11-17T18:11:46.193Z,99625.94
2022-11-17T18:14:14.533Z,99623.34
2022-11-17T18:16:42.324Z,99622.44
2022-11-17T18:19:14.967Z,99620.59
2022-11-17T18:21:44.764Z,99617.22
2022-11-17T18:24:13.703Z,99613.75
2022-11-17T18:26:42.021Z,99616.22
2022-11-17T18:29:14.045Z,99624.78
2022-11-17T18:31:43.067Z,99618.78
2022-11-17T18:34:24.014Z,99630.72
2022-11-17T18:36:53.183Z,99634.97
2022-11-17T18:39:21.520Z,99631.56
2022-11-17T18:41:48.972Z,99637.59
2022-11-17T18:44:19.753Z,99613.53
2022-11-17T18:46:47.809Z,99634.16
2022-11-17T18:49:15.458Z,99640.97
2022-11-17T18:51:43.277Z,99631.66
2022-11-17T18:54:11.212Z,99630.97
2022-11-17T18:56:39.375Z,99635.25
2022-11-17T18:59:11.930Z,99636.13
2022-11-17T19:01:43.633Z,99635.28
2022-11-17T19:04:13.876Z,99625.09
2022-11-17T19:06:41.426Z,99636.22
2022-11-17T19:09:09.359Z,99631.03
2022-11-17T19:11:36.974Z,99627.59
2022-11-17T19:14:05.709Z,99619.00
2022-11-17T19:16:41.020Z,99631.91
2022-11-17T19:19:11.365Z,99628.47
2022-11-17T19:21:38.898Z,99619.22
2022-11-17T19:24:06.768Z,99627.81
2022-11-17T19:26:36.253Z,99624.44
2022-11-17T19:29:15.972Z,99616.03
2022-11-17T19:31:43.534Z,99614.25
2022-11-17T19:34:11.795Z,99615.84
2022-11-17T19:36:39.477Z,99602.06
2022-11-17T19:39:07.045Z,99610.59
2022-11-17T19:41:37.026Z,99609.75
2022-11-17T19:44:07.212Z,99600.28
2022-11-17T19:46:36.552Z,99605.31
2022-11-17T19:49:06.233Z,99603.59
2022-11-17T19:51:36.693Z,99601.91
2022-11-17T19:54:07.447Z,99597.72
2022-11-17T19:56:35.607Z,99604.50
2022-11-17T19:59:03.654Z,99601.13
2022-11-17T20:01:32.067Z,99607.06
2022-11-17T20:04:00.755Z,99601.06
2022-11-17T20:06:32.214Z,99606.19
2022-11-17T20:09:00.979Z,99600.13
2022-11-17T20:11:28.940Z,99607.06
2022-11-17T20:13:56.844Z,99603.59
2022-11-17T20:16:26.739Z,99607.09
2022-11-17T20:18:59.241Z,99607.09
2022-11-17T20:21:28.687Z,99595.13
2022-11-17T20:23:56.570Z,99590.88
2022-11-17T20:26:26.293Z,99591.78
2022-11-17T20:28:54.250Z,99571.22
2022-11-17T20:31:26.914Z,99589.97
2022-11-17T20:34:00.849Z,99600.16
2022-11-17T20:36:30.836Z,99589.19
2022-11-17T20:39:00.724Z,99579.00
2022-11-17T20:41:29.051Z,99578.09
2022-11-17T20:43:58.372Z,99574.69
2022-11-17T20:46:26.346Z,99569.56
2022-11-17T20:48:53.921Z,99572.16
2022-11-17T20:51:23.611Z,99576.50
2022-11-17T20:53:51.520Z,99564.56
2022-11-17T20:56:19.430Z,99567.09
2022-11-17T20:58:46.900Z,99550.84
2022-11-17T21:01:15.906Z,99557.72
2022-11-17T21:03:43.968Z,99556.00
2022-11-17T21:06:12.185Z,99552.50
2022-11-17T21:08:41.446Z,99564.38
2022-11-17T21:11:32.162Z,99559.28
2022-11-17T21:13:59.870Z,99566.06
2022-11-17T21:16:27.254Z,99572.94
2022-11-17T21:18:54.756Z,99557.53
2022-11-17T21:21:22.215Z,99569.56
2022-11-17T21:23:54.015Z,99564.47
2022-11-17T21:26:23.109Z,99559.28
2022-11-17T21:28:50.708Z,99563.50
2022-11-17T21:31:20.985Z,99544.66
2022-11-17T21:33:55.045Z,99559.09
2022-11-17T21:36:24.454Z,99547.09
2022-11-17T21:38:52.244Z,99547.78
2022-11-17T21:41:25.617Z,99548.53
2022-11-17T21:43:54.766Z,99551.88
2022-11-17T21:46:24.736Z,99553.53
2022-11-17T21:48:53.773Z,99550.06
2022-11-17T21:51:23.549Z,99544.97
2022-11-17T21:53:58.471Z,99542.41
2022-11-17T21:56:27.382Z,99544.97
2022-11-17T21:59:02.290Z,99544.84
2022-11-17T22:01:30.546Z,99549.19
2022-11-17T22:03:57.938Z,99546.69
2022-11-17T22:06:26.496Z,99548.38
2022-11-17T22:08:55.666Z,99547.53
2022-11-17T22:11:38.768Z,99550.06
2022-11-17T22:14:17.008Z,99539.91
2022-11-17T22:16:52.518Z,99536.50
2022-11-17T22:19:21.885Z,99531.41
2022-11-17T22:21:51.719Z,99534.03
2022-11-17T22:24:19.720Z,99529.81
2022-11-17T22:26:47.270Z,99529.03
2022-11-17T22:29:20.296Z,99530.78
2022-11-17T22:31:49.015Z,99529.97
2022-11-17T22:34:17.340Z,99520.59
2022-11-17T22:36:44.770Z,99527.47
2022-11-17T22:39:12.099Z,99528.28
2022-11-17T22:41:39.761Z,99536.72
2022-11-17T22:44:07.049Z,99531.59
2022-11-17T22:46:35.382Z,99519.69
2022-11-17T22:49:03.467Z,99533.13
2022-11-17T22:51:49.079Z,99531.38
2022-11-17T22:54:16.977Z,99524.53
2022-11-17T22:56:45.194Z,99521.94
2022-11-17T22:59:12.536Z,99527.88
2022-11-17T23:01:40.011Z,99518.53
2022-11-17T23:04:07.508Z,99516.03
2022-11-17T23:06:34.941Z,99507.47
2022-11-17T23:09:02.491Z,99502.44
2022-11-17T23:11:38.370Z,99512.59
2022-11-17T23:14:08.453Z,99504.06
2022-11-17T23:16:37.929Z,99492.06
2022-11-17T23:19:06.269Z,99505.66
2022-11-17T23:21:33.608Z,99502.19
2022-11-17T23:24:01.107Z,99490.19
2022-11-17T23:26:28.578Z,99501.22
2022-11-17T23:28:55.977Z,99501.94
2022-11-17T23:31:23.279Z,99510.38
2022-11-17T23:33:50.780Z,99507.72
2022-11-17T23:36:22.389Z,99505.00
2022-11-17T23:38:51.190Z,99503.94
2022-11-17T23:41:20.807Z,99506.31
2022-11-17T23:43:53.131Z,99506.19
2022-11-17T23:46:25.204Z,99506.19
2022-11-17T23:48:53.581Z,99501.03
2022-11-17T23:51:25.798Z,99507.78
2022-11-17T23:53:53.939Z,99507.75
2022-11-17T23:56:22.327Z,99505.09
2022-11-17T23:58:52.005Z,99494.88
